sensor_id;sensor_type;location;lat;lon;timestamp;pressure;altitude;pressure_sealevel;temperature;humidity
25560;BME280;13450;49.374;8.584;2022-10-15T00:01:43;99789.69;;;14.23;100.00
25560;BME280;13450;49.374;8.584;2022-10-15T00:04:09;99778.94;;;14.23;100.00
25560;BME280;13450;49.374;8.584;2022-10-15T00:06:34;99777.91;;;14.24;100.00
25560;BME280;13450;49.374;8.584;2022-10-15T00:08:59;99776.63;;;14.27;100.00
25560;BME280;13450;49.374;8.584;2022-10-15T00:11:26;99775.34;;;14.29;100.00
25560;BME280;13450;49.374;8.584;2022-10-15T00:13:54;99777.66;;;14.25;100.00
25560;BME280;13450;49.374;8.584;2022-10-15T00:16:23;99777.22;;;14.29;100.00
25560;BME280;13450;49.374;8.584;2022-10-15T00:18:50;99781.53;;;14.30;100.00
25560;BME280;13450;49.374;8.584;2022-10-15T00:21:20;99772.19;;;14.32;100.00
25560;BME280;13450;49.374;8.584;2022-10-15T00:23:47;99769.75;;;14.31;100.00
25560;BME280;13450;49.374;8.584;2022-10-15T00:26:15;99773.84;;;14.33;100.00
25560;BME280;13450;49.374;8.584;2022-10-15T00:28:41;99780.66;;;14.36;100.00
25560;BME280;13450;49.374;8.584;2022-10-15T00:31:11;99772.09;;;14.39;100.00
25560;BME280;13450;49.374;8.584;2022-10-15T00:33:37;99775.63;;;14.39;100.00
25560;BME280;13450;49.374;8.584;2022-10-15T00:36:09;99770.03;;;14.41;100.00
25560;BME280;13450;49.374;8.584;2022-10-15T00:38:35;99777.88;;;14.43;100.00
25560;BME280;13450;49.374;8.584;2022-10-15T00:41:04;99777.19;;;14.47;100.00
25560;BME280;13450;49.374;8.584;2022-10-15T00:43:51;99779.88;;;14.47;100.00
25560;BME280;13450;49.374;8.584;2022-10-15T00:46:24;99771.94;;;14.52;100.00
25560;BME280;13450;49.374;8.584;2022-10-15T00:48:57;99780.38;;;14.56;100.00
25560;BME280;13450;49.374;8.584;2022-10-15T00:51:30;99779.13;;;14.59;100.00
25560;BME280;13450;49.374;8.584;2022-10-15T00:53:58;99772.66;;;14.60;100.00
25560;BME280;13450;49.374;8.584;2022-10-15T00:56:25;99772.22;;;14.63;100.00
25560;BME280;13450;49.374;8.584;2022-10-15T00:58:52;99775.50;;;14.65;100.00
25560;BME280;13450;49.374;8.584;2022-10-15T01:01:19;99771.31;;;14.69;100.00
25560;BME280;13450;49.374;8.584;2022-10-15T01:03:45;99762.16;;;14.70;100.00
25560;BME280;13450;49.374;8.584;2022-10-15T01:06:11;99765.47;;;14.72;100.00
25560;BME280;13450;49.374;8.584;2022-10-15T01:08:36;99775.78;;;14.75;100.00
25560;BME280;13450;49.374;8.584;2022-10-15T01:23:01;99767.03;;;14.80;100.00
25560;BME280;13450;49.374;8.584;2022-10-15T01:25:59;99754.53;;;14.86;100.00
25560;BME280;13450;49.374;8.584;2022-10-15T01:28:51;99751.63;;;14.87;100.00
25560;BME280;13450;49.374;8.584;2022-10-15T01:31:25;99756.16;;;14.87;100.00
25560;BME280;13450;49.374;8.584;2022-10-15T01:34:08;99751.97;;;14.91;100.00
25560;BME280;13450;49.374;8.584;2022-10-15T01:36:41;99757.00;;;14.87;100.00
25560;BME280;13450;49.374;8.584;2022-10-15T01:39:18;99754.66;;;14.91;100.00
25560;BME280;13450;49.374;8.584;2022-10-15T01:41:51;99749.84;;;14.93;100.00
25560;BME280;13450;49.374;8.584;2022-10-15T01:44:31;99744.94;;;14.90;100.00
25560;BME280;13450;49.374;8.584;2022-10-15T01:47:13;99745.28;;;14.94;100.00
25560;BME280;13450;49.374;8.584;2022-10-15T01:49:43;99745.63;;;14.97;100.00
25560;BME280;13450;49.374;8.584;2022-10-15T01:52:16;99752.09;;;14.96;100.00
25560;BME280;13450;49.374;8.584;2022-10-15T01:54:44;99754.78;;;14.96;100.00
25560;BME280;13450;49.374;8.584;2022-10-15T01:57:12;99755.97;;;15.00;100.00
25560;BME280;13450;49.374;8.584;2022-10-15T01:59:40;99751.75;;;15.04;100.00
25560;BME280;13450;49.374;8.584;2022-10-15T02:02:09;99750.13;;;15.03;100.00
25560;BME280;13450;49.374;8.584;2022-10-15T02:04:34;99754.69;;;15.03;100.00
25560;BME280;13450;49.374;8.584;2022-10-15T02:07:06;99753.88;;;15.02;100.00
25560;BME280;13450;49.374;8.584;2022-10-15T02:09:49;99751.75;;;15.04;100.00
25560;BME280;13450;49.374;8.584;2022-10-15T02:12:35;99754.91;;;15.01;100.00
25560;BME280;13450;49.374;8.584;2022-10-15T02:15:18;99753.88;;;15.02;100.00
25560;BME280;13450;49.374;8.584;2022-10-15T02:18:04;99748.84;;;15.06;100.00
25560;BME280;13450;49.374;8.584;2022-10-15T02:20:55;99747.53;;;15.09;100.00
25560;BME280;13450;49.374;8.584;2022-10-15T02:23:34;99746.38;;;15.04;100.00
25560;BME280;13450;49.374;8.584;2022-10-15T02:26:03;99748.00;;;15.06;100.00
25560;BME280;13450;49.374;8.584;2022-10-15T02:28:32;99746.38;;;15.04;100.00
25560;BME280;13450;49.374;8.584;2022-10-15T02:30:58;99755.03;;;15.07;100.00
25560;BME280;13450;49.374;8.584;2022-10-15T02:33:26;99758.78;;;15.06;100.00
25560;BME280;13450;49.374;8.584;2022-10-15T02:35:53;99758.31;;;15.09;100.00
25560;BME280;13450;49.374;8.584;2022-10-15T02:38:22;99758.78;;;15.06;100.00
25560;BME280;13450;49.374;8.584;2022-10-15T02:40:48;99756.22;;;15.11;100.00
25560;BME280;13450;49.374;8.584;2022-10-15T02:43:18;99758.31;;;15.09;100.00
25560;BME280;13450;49.374;8.584;2022-10-15T02:45:44;99752.09;;;15.08;100.00
25560;BME280;13450;49.374;8.584;2022-10-15T02:48:10;99752.09;;;15.08;100.00
25560;BME280;13450;49.374;8.584;2022-10-15T02:50:35;99750.81;;;15.11;100.00
25560;BME280;13450;49.374;8.584;2022-10-15T02:53:00;99756.69;;;15.08;100.00
25560;BME280;13450;49.374;8.584;2022-10-15T02:55:26;99750.59;;;15.12;100.00
25560;BME280;13450;49.374;8.584;2022-10-15T02:57:51;99747.53;;;15.09;100.00
25560;BME280;13450;49.374;8.584;2022-10-15T03:00:17;99744.84;;;15.09;100.00
25560;BME280;13450;49.374;8.584;2022-10-15T03:02:43;99762.78;;;15.15;100.00
25560;BME280;13450;49.374;8.584;2022-10-15T03:05:08;99760.56;;;15.12;100.00
25560;BME280;13450;49.374;8.584;2022-10-15T03:07:34;99761.13;;;15.14;100.00
25560;BME280;13450;49.374;8.584;2022-10-15T03:09:59;99754.91;;;15.13;100.00
25560;BME280;13450;49.374;8.584;2022-10-15T03:12:24;99759.84;;;15.16;100.00
25560;BME280;13450;49.374;8.584;2022-10-15T03:14:50;99758.22;;;15.15;100.00
25560;BME280;13450;49.374;8.584;2022-10-15T03:17:18;99759.06;;;15.16;100.00
25560;BME280;13450;49.374;8.584;2022-10-15T03:19:43;99760.19;;;15.20;100.00
25560;BME280;13450;49.374;8.584;2022-10-15T03:22:09;99763.97;;;15.19;100.00
25560;BME280;13450;49.374;8.584;2022-10-15T03:24:36;99759.75;;;15.23;100.00
25560;BME280;13450;49.374;8.584;2022-10-15T03:27:02;99761.03;;;15.21;100.00
25560;BME280;13450;49.374;8.584;2022-10-15T03:29:27;99761.38;;;15.24;100.00
25560;BME280;13450;49.374;8.584;2022-10-15T03:31:52;99763.50;;;15.22;100.00
25560;BME280;13450;49.374;8.584;2022-10-15T03:34:18;99762.44;;;15.23;100.00
25560;BME280;13450;49.374;8.584;2022-10-15T03:36:43;99760.81;;;15.22;100.00
25560;BME280;13450;49.374;8.584;2022-10-15T03:39:10;99757.66;;;15.25;100.00
25560;BME280;13450;49.374;8.584;2022-10-15T03:41:36;99757.66;;;15.25;100.00
25560;BME280;13450;49.374;8.584;2022-10-15T03:44:06;99763.03;;;15.25;100.00
25560;BME280;13450;49.374;8.584;2022-10-15T03:46:32;99764.69;;;15.26;100.00
25560;BME280;13450;49.374;8.584;2022-10-15T03:48:58;99766.31;;;15.27;100.00
25560;BME280;13450;49.374;8.584;2022-10-15T03:51:24;99775.00;;;15.29;100.00
25560;BME280;13450;49.374;8.584;2022-10-15T03:53:50;99773.94;;;15.30;100.00
25560;BME280;13450;49.374;8.584;2022-10-15T03:56:16;99769.63;;;15.29;100.00
25560;BME280;13450;49.374;8.584;2022-10-15T03:58:41;99778.84;;;15.34;100.00
25560;BME280;13450;49.374;8.584;2022-10-15T04:01:14;99778.03;;;15.33;100.00
25560;BME280;13450;49.374;8.584;2022-10-15T04:03:40;99770.75;;;15.34;100.00
25560;BME280;13450;49.374;8.584;2022-10-15T04:06:05;99779.09;;;15.32;100.00
25560;BME280;13450;49.374;8.584;2022-10-15T04:08:31;99789.41;;;15.35;100.00
25560;BME280;13450;49.374;8.584;2022-10-15T04:10:57;99784.00;;;15.35;100.00
25560;BME280;13450;49.374;8.584;2022-10-15T04:13:23;99791.75;;;15.32;100.00
25560;BME280;13450;49.374;8.584;2022-10-15T04:15:49;99784.50;;;15.32;100.00
25560;BME280;13450;49.374;8.584;2022-10-15T04:18:15;99797.13;;;15.32;100.00
25560;BME280;13450;49.374;8.584;2022-10-15T04:20:41;99796.06;;;15.33;100.00
25560;BME280;13450;49.374;8.584;2022-10-15T04:23:09;99802.06;;;15.35;100.00
25560;BME280;13450;49.374;8.584;2022-10-15T04:25:37;99812.25;;;15.33;100.00
25560;BME280;13450;49.374;8.584;2022-10-15T04:28:03;99816.00;;;15.32;100.00
25560;BME280;13450;49.374;8.584;2022-10-15T04:30:28;99822.22;;;15.32;100.00
25560;BME280;13450;49.374;8.584;2022-10-15T04:32:53;99826.34;;;15.35;100.00
25560;BME280;13450;49.374;8.584;2022-10-15T04:35:19;99837.13;;;15.35;100.00
25560;BME280;13450;49.374;8.584;2022-10-15T04:37:45;99837.13;;;15.35;100.00
25560;BME280;13450;49.374;8.584;2022-10-15T04:40:10;99830.66;;;15.36;100.00
25560;BME280;13450;49.374;8.584;2022-10-15T04:42:36;99833.00;;;15.32;100.00
25560;BME280;13450;49.374;8.584;2022-10-15T04:45:05;99835.44;;;15.34;100.00
25560;BME280;13450;49.374;8.584;2022-10-15T04:47:31;99837.47;;;15.38;100.00
25560;BME280;13450;49.374;8.584;2022-10-15T04:49:57;99838.28;;;15.39;100.00
25560;BME280;13450;49.374;8.584;2022-10-15T04:52:22;99847.91;;;15.35;100.00
25560;BME280;13450;49.374;8.584;2022-10-15T04:54:48;99840.38;;;15.37;100.00
25560;BME280;13450;49.374;8.584;2022-10-15T04:57:13;99849.06;;;15.39;100.00
25560;BME280;13450;49.374;8.584;2022-10-15T04:59:39;99841.22;;;15.37;100.00
25560;BME280;13450;49.374;8.584;2022-10-15T05:02:04;99849.53;;;15.36;100.00
25560;BME280;13450;49.374;8.584;2022-10-15T05:04:30;99859.47;;;15.35;100.00
25560;BME280;13450;49.374;8.584;2022-10-15T05:06:55;99849.06;;;15.39;100.00
25560;BME280;13450;49.374;8.584;2022-10-15T05:09:20;99861.94;;;15.37;100.00
25560;BME280;13450;49.374;8.584;2022-10-15T05:11:47;99857.75;;;15.41;100.00
25560;BME280;13450;49.374;8.584;2022-10-15T05:14:12;99865.69;;;15.36;100.00
25560;BME280;13450;49.374;8.584;2022-10-15T05:16:37;99861.50;;;15.40;100.00
25560;BME280;13450;49.374;8.584;2022-10-15T05:19:04;99857.16;;;15.39;100.00
25560;BME280;13450;49.374;8.584;2022-10-15T05:21:30;99859.84;;;15.39;100.00
25560;BME280;13450;49.374;8.584;2022-10-15T05:23:57;99865.69;;;15.36;100.00
25560;BME280;13450;49.374;8.584;2022-10-15T05:26:24;99868.16;;;15.37;100.00
25560;BME280;13450;49.374;8.584;2022-10-15T05:28:50;99875.19;;;15.38;100.00
25560;BME280;13450;49.374;8.584;2022-10-15T05:31:20;99877.06;;;15.38;100.00
25560;BME280;13450;49.374;8.584;2022-10-15T05:33:49;99878.13;;;15.37;100.00
25560;BME280;13450;49.374;8.584;2022-10-15T05:36:17;99886.81;;;15.39;100.00
25560;BME280;13450;49.374;8.584;2022-10-15T05:38:47;99885.63;;;15.35;100.00
25560;BME280;13450;49.374;8.584;2022-10-15T05:41:12;99883.50;;;15.37;100.00
25560;BME280;13450;49.374;8.584;2022-10-15T05:43:38;99881.66;;;15.37;100.00
25560;BME280;13450;49.374;8.584;2022-10-15T05:46:03;99892.66;;;15.36;100.00
25560;BME280;13450;49.374;8.584;2022-10-15T05:48:29;99898.88;;;15.36;100.00
25560;BME280;13450;49.374;8.584;2022-10-15T05:51:03;99903.00;;;15.39;100.00
25560;BME280;13450;49.374;8.584;2022-10-15T05:53:30;99905.69;;;15.39;100.00
25560;BME280;13450;49.374;8.584;2022-10-15T05:55:55;99915.41;;;15.40;100.00
25560;BME280;13450;49.374;8.584;2022-10-15T05:58:25;99912.09;;;15.38;100.00
25560;BME280;13450;49.374;8.584;2022-10-15T06:00:59;99911.31;;;15.37;100.00
25560;BME280;13450;49.374;8.584;2022-10-15T06:03:25;99912.94;;;15.38;100.00
25560;BME280;13450;49.374;8.584;2022-10-15T06:05:51;99926.19;;;15.40;100.00
25560;BME280;13450;49.374;8.584;2022-10-15T06:08:16;99927.25;;;15.39;100.00
25560;BME280;13450;49.374;8.584;2022-10-15T06:10:42;99931.81;;;15.38;100.00
25560;BME280;13450;49.374;8.584;2022-10-15T06:13:10;99929.94;;;15.39;100.00
25560;BME280;13450;49.374;8.584;2022-10-15T06:15:42;99937.41;;;15.37;100.00
25560;BME280;13450;49.374;8.584;2022-10-15T06:18:09;99946.69;;;15.41;100.00
25560;BME280;13450;49.374;8.584;2022-10-15T06:20:37;99944.84;;;15.41;100.00
25560;BME280;13450;49.374;8.584;2022-10-15T06:23:06;99946.56;;;15.36;100.00
25560;BME280;13450;49.374;8.584;2022-10-15T06:25:32;99951.50;;;15.39;100.00
25560;BME280;13450;49.374;8.584;2022-10-15T06:28:02;99946.69;;;15.41;100.00
25560;BME280;13450;49.374;8.584;2022-10-15T06:30:31;99945.06;;;15.40;100.00
25560;BME280;13450;49.374;8.584;2022-10-15T06:32:56;99960.19;;;15.41;100.00
25560;BME280;13450;49.374;8.584;2022-10-15T06:35:24;99959.72;;;15.44;100.00
25560;BME280;13450;49.374;8.584;2022-10-15T06:37:50;99966.75;;;15.45;100.00
25560;BME280;13450;49.374;8.584;2022-10-15T06:40:16;99963.00;;;15.46;100.00
25560;BME280;13450;49.374;8.584;2022-10-15T06:42:42;99970.88;;;15.48;100.00
25560;BME280;13450;49.374;8.584;2022-10-15T06:45:08;99970.88;;;15.48;100.00
25560;BME280;13450;49.374;8.584;2022-10-15T06:47:35;99980.38;;;15.50;100.00
25560;BME280;13450;49.374;8.584;2022-10-15T06:50:00;99978.28;;;15.52;100.00
25560;BME280;13450;49.374;8.584;2022-10-15T06:52:28;99981.09;;;15.58;100.00
25560;BME280;13450;49.374;8.584;2022-10-15T06:54:54;99979.09;;;15.53;100.00
25560;BME280;13450;49.374;8.584;2022-10-15T06:57:20;99982.16;;;15.56;100.00
25560;BME280;13450;49.374;8.584;2022-10-15T06:59:45;99980.72;;;15.54;100.00
25560;BME280;13450;49.374;8.584;2022-10-15T07:02:11;99991.28;;;15.55;100.00
25560;BME280;13450;49.374;8.584;2022-10-15T07:04:38;99989.66;;;15.54;100.00
25560;BME280;13450;49.374;8.584;2022-10-15T07:07:06;99992.22;;;15.49;100.00
25560;BME280;13450;49.374;8.584;2022-10-15T07:09:31;99984.97;;;15.50;100.00
25560;BME280;13450;49.374;8.584;2022-10-15T07:11:56;99988.09;;;15.47;100.00
25560;BME280;13450;49.374;8.584;2022-10-15T07:14:22;99991.47;;;15.42;100.00
25560;BME280;13450;49.374;8.584;2022-10-15T07:16:47;99983.84;;;15.39;100.00
25560;BME280;13450;49.374;8.584;2022-10-15T07:19:13;99987.25;;;15.46;100.00
25560;BME280;13450;49.374;8.584;2022-10-15T07:21:38;99987.03;;;15.48;100.00
25560;BME280;13450;49.374;8.584;2022-10-15T07:24:04;99990.56;;;15.48;100.00
25560;BME280;13450;49.374;8.584;2022-10-15T07:26:31;99994.16;;;15.42;100.00
25560;BME280;13450;49.374;8.584;2022-10-15T07:28:57;99998.53;;;15.43;100.00
25560;BME280;13450;49.374;8.584;2022-10-15T07:31:22;100004.13;;;15.41;100.00
25560;BME280;13450;49.374;8.584;2022-10-15T07:33:48;100007.41;;;15.43;100.00
25560;BME280;13450;49.374;8.584;2022-10-15T07:36:13;100003.91;;;15.43;100.00
25560;BME280;13450;49.374;8.584;2022-10-15T07:38:39;100012.38;;;15.47;100.00
25560;BME280;13450;49.374;8.584;2022-10-15T07:41:06;99997.81;;;15.48;100.00
25560;BME280;13450;49.374;8.584;2022-10-15T07:43:33;100007.31;;;15.50;100.00
25560;BME280;13450;49.374;8.584;2022-10-15T07:45:59;99999.38;;;15.55;100.00
25560;BME280;13450;49.374;8.584;2022-10-15T07:48:26;100009.13;;;15.56;100.00
25560;BME280;13450;49.374;8.584;2022-10-15T07:51:02;100005.94;;;15.60;100.00
25560;BME280;13450;49.374;8.584;2022-10-15T07:53:29;100009.25;;;15.62;100.00
25560;BME280;13450;49.374;8.584;2022-10-15T07:56:04;100013.16;;;15.66;100.00
25560;BME280;13450;49.374;8.584;2022-10-15T07:58:31;100011.25;;;15.66;100.00
25560;BME280;13450;49.374;8.584;2022-10-15T08:00:59;100019.13;;;15.68;100.00
25560;BME280;13450;49.374;8.584;2022-10-15T08:03:27;100020.88;;;15.74;100.00
25560;BME280;13450;49.374;8.584;2022-10-15T08:05:53;100023.13;;;15.77;100.00
25560;BME280;13450;49.374;8.584;2022-10-15T08:08:20;100026.88;;;15.76;100.00
25560;BME280;13450;49.374;8.584;2022-10-15T08:10:46;100015.66;;;15.79;100.00
25560;BME280;13450;49.374;8.584;2022-10-15T08:13:12;100015.56;;;15.86;100.00
25560;BME280;13450;49.374;8.584;2022-10-15T08:15:38;100012.97;;;15.91;100.00
25560;BME280;13450;49.374;8.584;2022-10-15T08:18:04;100012.06;;;15.98;100.00
25560;BME280;13450;49.374;8.584;2022-10-15T08:20:30;99998.25;;;16.06;100.00
25560;BME280;13450;49.374;8.584;2022-10-15T08:22:58;100009.38;;;16.10;100.00
25560;BME280;13450;49.374;8.584;2022-10-15T08:25:23;100010.13;;;16.17;100.00
25560;BME280;13450;49.374;8.584;2022-10-15T08:27:51;100013.03;;;16.15;100.00
25560;BME280;13450;49.374;8.584;2022-10-15T08:30:20;100016.09;;;16.19;100.00
25560;BME280;13450;49.374;8.584;2022-10-15T08:32:46;100025.13;;;16.13;100.00
25560;BME280;13450;49.374;8.584;2022-10-15T08:35:11;100021.47;;;16.07;100.00
25560;BME280;13450;49.374;8.584;2022-10-15T08:37:36;100023.94;;;16.08;100.00
25560;BME280;13450;49.374;8.584;2022-10-15T08:40:03;100019.94;;;15.99;100.00
25560;BME280;13450;49.374;8.584;2022-10-15T08:42:38;100026.41;;;16.10;100.00
25560;BME280;13450;49.374;8.584;2022-10-15T08:45:11;100028.41;;;16.15;100.00
25560;BME280;13450;49.374;8.584;2022-10-15T08:47:56;100023.16;;;16.20;100.00
25560;BME280;13450;49.374;8.584;2022-10-15T08:52:53;100035.22;;;16.17;100.00
25560;BME280;13450;49.374;8.584;2022-10-15T08:55:21;100024.91;;;16.26;100.00
25560;BME280;13450;49.374;8.584;2022-10-15T08:57:56;100029.97;;;16.23;100.00
25560;BME280;13450;49.374;8.584;2022-10-15T09:00:30;100037.91;;;16.17;100.00
25560;BME280;13450;49.374;8.584;2022-10-15T09:03:00;100038.84;;;16.23;100.00
25560;BME280;13450;49.374;8.584;2022-10-15T09:08:54;100037.69;;;16.31;100.00
25560;BME280;13450;49.374;8.584;2022-10-15T09:14:12;100027.72;;;16.31;100.00
25560;BME280;13450;49.374;8.584;2022-10-15T09:16:40;100028.56;;;16.32;100.00
25560;BME280;13450;49.374;8.584;2022-10-15T09:19:13;100038.19;;;16.28;100.00
25560;BME280;13450;49.374;8.584;2022-10-15T09:21:40;100032.06;;;16.20;100.00
25560;BME280;13450;49.374;8.584;2022-10-15T09:24:09;100036.50;;;16.15;100.00
25560;BME280;13450;49.374;8.584;2022-10-15T09:38:20;100031.59;;;16.47;100.00
25560;BME280;13450;49.374;8.584;2022-10-15T09:43:50;100034.06;;;16.49;100.00
25560;BME280;13450;49.374;8.584;2022-10-15T09:46:17;100033.63;;;16.52;100.00
25560;BME280;13450;49.374;8.584;2022-10-15T09:49:08;100037.50;;;16.56;100.00
25560;BME280;13450;49.374;8.584;2022-10-15T09:51:51;100032.19;;;16.62;100.00
25560;BME280;13450;49.374;8.584;2022-10-15T09:57:00;100038.78;;;16.66;100.00
25560;BME280;13450;49.374;8.584;2022-10-15T09:59:25;100048.63;;;16.72;100.00
25560;BME280;13450;49.374;8.584;2022-10-15T10:02:18;100048.50;;;16.79;100.00
25560;BME280;13450;49.374;8.584;2022-10-15T10:04:45;100048.16;;;16.75;100.00
25560;BME280;13450;49.374;8.584;2022-10-15T10:07:28;100052.97;;;16.85;100.00
25560;BME280;13450;49.374;8.584;2022-10-15T10:09:55;100068.25;;;16.91;100.00
25560;BME280;13450;49.374;8.584;2022-10-15T10:12:25;100051.56;;;16.94;100.00
25560;BME280;13450;49.374;8.584;2022-10-15T10:14:58;100052.63;;;17.05;100.00
25560;BME280;13450;49.374;8.584;2022-10-15T10:17:26;100058.38;;;17.09;100.00
25560;BME280;13450;49.374;8.584;2022-10-15T10:20:15;100050.84;;;17.11;100.00
25560;BME280;13450;49.374;8.584;2022-10-15T10:22:47;100052.84;;;17.16;100.00
25560;BME280;13450;49.374;8.584;2022-10-15T10:27:52;100052.34;;;17.19;100.00
25560;BME280;13450;49.374;8.584;2022-10-15T10:30:18;100051.28;;;17.32;100.00
25560;BME280;13450;49.374;8.584;2022-10-15T10:32:44;100040.50;;;17.49;100.00
25560;BME280;13450;49.374;8.584;2022-10-15T10:35:23;100050.72;;;17.59;100.00
25560;BME280;13450;49.374;8.584;2022-10-15T10:37:50;100053.94;;;17.73;100.00
25560;BME280;13450;49.374;8.584;2022-10-15T10:40:21;100046.72;;;17.78;100.00
25560;BME280;13450;49.374;8.584;2022-10-15T10:42:47;100048.50;;;18.02;100.00
25560;BME280;13450;49.374;8.584;2022-10-15T10:45:21;100051.16;;;18.31;100.00
25560;BME280;13450;49.374;8.584;2022-10-15T10:47:46;100045.81;;;18.53;100.00
25560;BME280;13450;49.374;8.584;2022-10-15T10:50:31;100041.72;;;18.90;100.00
25560;BME280;13450;49.374;8.584;2022-10-15T10:53:21;100049.34;;;18.71;100.00
25560;BME280;13450;49.374;8.584;2022-10-15T10:55:47;100039.41;;;18.99;100.00
25560;BME280;13450;49.374;8.584;2022-10-15T10:58:18;100038.53;;;19.38;100.00
25560;BME280;13450;49.374;8.584;2022-10-15T11:01:19;100044.84;;;19.71;100.00
25560;BME280;13450;49.374;8.584;2022-10-15T11:07:29;100047.16;;;19.85;100.00
25560;BME280;13450;49.374;8.584;2022-10-15T11:10:15;100047.44;;;19.83;100.00
25560;BME280;13450;49.374;8.584;2022-10-15T11:13:19;100041.09;;;19.72;100.00
25560;BME280;13450;49.374;8.584;2022-10-15T11:58:51;100017.97;;;18.07;100.00
25560;BME280;13450;49.374;8.584;2022-10-15T12:05:12;100008.13;;;17.83;100.00
25560;BME280;13450;49.374;8.584;2022-10-15T12:08:27;100023.63;;;17.42;100.00
25560;BME280;13450;49.374;8.584;2022-10-15T12:14:26;100017.78;;;17.62;100.00
25560;BME280;13450;49.374;8.584;2022-10-15T12:20:23;100011.53;;;17.61;100.00
25560;BME280;13450;49.374;8.584;2022-10-15T12:37:36;100004.50;;;17.60;100.00
25560;BME280;13450;49.374;8.584;2022-10-15T12:48:30;99992.94;;;17.65;100.00
25560;BME280;13450;49.374;8.584;2022-10-15T12:53:42;99993.84;;;17.71;100.00
25560;BME280;13450;49.374;8.584;2022-10-15T12:56:26;99987.59;;;17.70;100.00
25560;BME280;13450;49.374;8.584;2022-10-15T13:04:35;99990.66;;;17.45;100.00
25560;BME280;13450;49.374;8.584;2022-10-15T13:07:17;99980.06;;;17.55;100.00
25560;BME280;13450;49.374;8.584;2022-10-15T13:09:52;99995.13;;;17.51;100.00
25560;BME280;13450;49.374;8.584;2022-10-15T13:12:26;99992.22;;;17.41;100.00
25560;BME280;13450;49.374;8.584;2022-10-15T13:14:56;99996.38;;;17.31;100.00
25560;BME280;13450;49.374;8.584;2022-10-15T13:19:58;99974.22;;;17.17;100.00
25560;BME280;13450;49.374;8.584;2022-10-15T13:22:28;99982.81;;;17.02;100.00
25560;BME280;13450;49.374;8.584;2022-10-15T13:24:55;99981.53;;;16.93;100.00
25560;BME280;13450;49.374;8.584;2022-10-15T13:30:14;99998.91;;;17.09;100.00
25560;BME280;13450;49.374;8.584;2022-10-15T13:32:47;99995.72;;;17.00;100.00
25560;BME280;13450;49.374;8.584;2022-10-15T13:35:22;99987.38;;;17.13;100.00
25560;BME280;13450;49.374;8.584;2022-10-15T13:37:50;99998.78;;;17.16;100.00
25560;BME280;13450;49.374;8.584;2022-10-15T13:40:20;99984.91;;;17.12;100.00
25560;BME280;13450;49.374;8.584;2022-10-15T13:43:02;99988.91;;;17.09;100.00
25560;BME280;13450;49.374;8.584;2022-10-15T13:45:31;99993.00;;;17.24;100.00
25560;BME280;13450;49.374;8.584;2022-10-15T13:47:57;99988.84;;;17.33;100.00
25560;BME280;13450;49.374;8.584;2022-10-15T13:50:31;99992.66;;;17.49;100.00
25560;BME280;13450;49.374;8.584;2022-10-15T14:00:34;99994.25;;;17.33;100.00
25560;BME280;13450;49.374;8.584;2022-10-15T14:03:20;99981.50;;;17.46;100.00
25560;BME280;13450;49.374;8.584;2022-10-15T14:05:48;99979.94;;;17.50;100.00
25560;BME280;13450;49.374;8.584;2022-10-15T14:10:50;99990.09;;;17.43;100.00
25560;BME280;13450;49.374;8.584;2022-10-15T14:28:50;100005.72;;;17.41;100.00
25560;BME280;13450;49.374;8.584;2022-10-15T14:31:24;100007.19;;;17.31;100.00
25560;BME280;13450;49.374;8.584;2022-10-15T14:36:40;100008.75;;;17.15;100.00
25560;BME280;13450;49.374;8.584;2022-10-15T14:39:33;100009.22;;;17.12;100.00
25560;BME280;13450;49.374;8.584;2022-10-15T14:42:00;100019.47;;;16.98;100.00
25560;BME280;13450;49.374;8.584;2022-10-15T14:44:25;100008.56;;;16.93;100.00
25560;BME280;13450;49.374;8.584;2022-10-15T14:47:03;100022.19;;;16.86;100.00
25560;BME280;13450;49.374;8.584;2022-10-15T14:49:32;100012.19;;;16.86;100.00
